sensor_id;sensor_type;location;lat;lon;timestamp;P1;durP1;ratioP1;P2;durP2;ratioP2
69910;SDS011;63555;49.920;17.868;2023-03-31T00:00:29;9.47;;;3.33;;
69910;SDS011;63555;49.920;17.868;2023-03-31T00:05:30;8.20;;;3.23;;
69910;SDS011;63555;49.920;17.868;2023-03-31T00:10:32;9.35;;;3.70;;
69910;SDS011;63555;49.920;17.868;2023-03-31T00:15:33;7.32;;;3.20;;
69910;SDS011;63555;49.920;17.868;2023-03-31T00:20:34;8.13;;;3.70;;
69910;SDS011;63555;49.920;17.868;2023-03-31T00:25:40;5.80;;;2.53;;
69910;SDS011;63555;49.920;17.868;2023-03-31T00:30:40;6.13;;;3.05;;
69910;SDS011;63555;49.920;17.868;2023-03-31T00:35:41;6.43;;;3.33;;
69910;SDS011;63555;49.920;17.868;2023-03-31T00:40:45;6.20;;;2.72;;
69910;SDS011;63555;49.920;17.868;2023-03-31T00:45:46;6.80;;;2.97;;
69910;SDS011;63555;49.920;17.868;2023-03-31T00:50:53;4.82;;;3.00;;
69910;SDS011;63555;49.920;17.868;2023-03-31T00:55:56;5.57;;;3.17;;
69910;SDS011;63555;49.920;17.868;2023-03-31T01:01:01;5.65;;;3.03;;
69910;SDS011;63555;49.920;17.868;2023-03-31T01:06:03;6.87;;;3.20;;
69910;SDS011;63555;49.920;17.868;2023-03-31T01:11:06;6.88;;;3.15;;
69910;SDS011;63555;49.920;17.868;2023-03-31T01:16:09;7.25;;;3.20;;
69910;SDS011;63555;49.920;17.868;2023-03-31T01:26:53;5.28;;;3.00;;
69910;SDS011;63555;49.920;17.868;2023-03-31T01:32:04;5.70;;;3.15;;
69910;SDS011;63555;49.920;17.868;2023-03-31T01:37:36;7.13;;;3.27;;
69910;SDS011;63555;49.920;17.868;2023-03-31T01:42:55;7.88;;;3.60;;
69910;SDS011;63555;49.920;17.868;2023-03-31T01:48:14;5.87;;;3.57;;
69910;SDS011;63555;49.920;17.868;2023-03-31T01:58:40;7.68;;;3.60;;
69910;SDS011;63555;49.920;17.868;2023-03-31T02:03:47;7.63;;;4.40;;
69910;SDS011;63555;49.920;17.868;2023-03-31T02:08:54;8.98;;;4.32;;
69910;SDS011;63555;49.920;17.868;2023-03-31T02:13:59;7.63;;;4.27;;
69910;SDS011;63555;49.920;17.868;2023-03-31T02:19:03;8.55;;;4.30;;
69910;SDS011;63555;49.920;17.868;2023-03-31T02:24:06;7.20;;;3.83;;
69910;SDS011;63555;49.920;17.868;2023-03-31T02:29:10;7.83;;;4.10;;
69910;SDS011;63555;49.920;17.868;2023-03-31T02:34:11;7.43;;;4.43;;
69910;SDS011;63555;49.920;17.868;2023-03-31T02:39:13;11.07;;;4.57;;
69910;SDS011;63555;49.920;17.868;2023-03-31T02:44:17;7.05;;;3.97;;
69910;SDS011;63555;49.920;17.868;2023-03-31T02:49:17;10.83;;;6.33;;
69910;SDS011;63555;49.920;17.868;2023-03-31T03:10:26;14.93;;;8.05;;
69910;SDS011;63555;49.920;17.868;2023-03-31T03:15:50;14.35;;;7.13;;
69910;SDS011;63555;49.920;17.868;2023-03-31T03:20:57;11.07;;;6.70;;
69910;SDS011;63555;49.920;17.868;2023-03-31T03:25:58;11.43;;;5.87;;
69910;SDS011;63555;49.920;17.868;2023-03-31T03:30:58;11.90;;;6.33;;
69910;SDS011;63555;49.920;17.868;2023-03-31T03:35:58;12.30;;;6.27;;
69910;SDS011;63555;49.920;17.868;2023-03-31T03:40:59;11.77;;;6.37;;
69910;SDS011;63555;49.920;17.868;2023-03-31T03:45:59;10.93;;;6.00;;
69910;SDS011;63555;49.920;17.868;2023-03-31T03:51:00;11.93;;;6.20;;
69910;SDS011;63555;49.920;17.868;2023-03-31T03:56:00;11.67;;;5.77;;
69910;SDS011;63555;49.920;17.868;2023-03-31T04:01:01;12.32;;;5.53;;
69910;SDS011;63555;49.920;17.868;2023-03-31T04:06:03;9.73;;;5.30;;
69910;SDS011;63555;49.920;17.868;2023-03-31T04:11:08;10.83;;;5.50;;
69910;SDS011;63555;49.920;17.868;2023-03-31T04:16:13;13.43;;;5.43;;
69910;SDS011;63555;49.920;17.868;2023-03-31T04:21:14;11.50;;;5.32;;
69910;SDS011;63555;49.920;17.868;2023-03-31T04:26:21;14.95;;;6.00;;
69910;SDS011;63555;49.920;17.868;2023-03-31T04:31:25;10.45;;;5.55;;
69910;SDS011;63555;49.920;17.868;2023-03-31T04:36:27;13.88;;;5.57;;
69910;SDS011;63555;49.920;17.868;2023-03-31T04:41:30;7.07;;;3.37;;
69910;SDS011;63555;49.920;17.868;2023-03-31T04:46:31;6.33;;;3.37;;
69910;SDS011;63555;49.920;17.868;2023-03-31T04:51:32;11.52;;;2.85;;
69910;SDS011;63555;49.920;17.868;2023-03-31T04:56:32;4.50;;;2.57;;
69910;SDS011;63555;49.920;17.868;2023-03-31T05:01:33;8.33;;;3.13;;
69910;SDS011;63555;49.920;17.868;2023-03-31T05:06:35;9.32;;;2.42;;
69910;SDS011;63555;49.920;17.868;2023-03-31T05:11:35;7.13;;;2.60;;
69910;SDS011;63555;49.920;17.868;2023-03-31T05:16:37;5.17;;;2.00;;
69910;SDS011;63555;49.920;17.868;2023-03-31T05:21:37;6.07;;;1.80;;
69910;SDS011;63555;49.920;17.868;2023-03-31T05:26:37;6.40;;;2.17;;
69910;SDS011;63555;49.920;17.868;2023-03-31T05:31:38;6.10;;;1.95;;
69910;SDS011;63555;49.920;17.868;2023-03-31T05:36:39;3.60;;;1.73;;
69910;SDS011;63555;49.920;17.868;2023-03-31T05:41:40;4.30;;;1.77;;
69910;SDS011;63555;49.920;17.868;2023-03-31T05:46:40;7.00;;;1.80;;
69910;SDS011;63555;49.920;17.868;2023-03-31T05:51:41;6.17;;;1.33;;
69910;SDS011;63555;49.920;17.868;2023-03-31T05:56:41;4.00;;;1.27;;
69910;SDS011;63555;49.920;17.868;2023-03-31T06:01:41;3.63;;;1.20;;
69910;SDS011;63555;49.920;17.868;2023-03-31T06:06:42;4.75;;;1.50;;
69910;SDS011;63555;49.920;17.868;2023-03-31T06:11:43;8.57;;;1.50;;
69910;SDS011;63555;49.920;17.868;2023-03-31T06:16:43;5.67;;;1.53;;
69910;SDS011;63555;49.920;17.868;2023-03-31T06:21:46;4.45;;;1.52;;
69910;SDS011;63555;49.920;17.868;2023-03-31T06:26:46;4.00;;;2.00;;
69910;SDS011;63555;49.920;17.868;2023-03-31T06:31:47;6.00;;;2.20;;
69910;SDS011;63555;49.920;17.868;2023-03-31T06:36:47;5.23;;;1.70;;
69910;SDS011;63555;49.920;17.868;2023-03-31T06:41:47;5.47;;;1.80;;
69910;SDS011;63555;49.920;17.868;2023-03-31T06:46:48;5.87;;;2.20;;
69910;SDS011;63555;49.920;17.868;2023-03-31T06:51:48;5.83;;;2.30;;
69910;SDS011;63555;49.920;17.868;2023-03-31T06:56:48;6.23;;;2.73;;
69910;SDS011;63555;49.920;17.868;2023-03-31T07:01:49;8.90;;;2.90;;
69910;SDS011;63555;49.920;17.868;2023-03-31T07:06:49;5.20;;;2.45;;
69910;SDS011;63555;49.920;17.868;2023-03-31T07:11:50;7.90;;;2.73;;
69910;SDS011;63555;49.920;17.868;2023-03-31T07:16:50;4.93;;;2.90;;
69910;SDS011;63555;49.920;17.868;2023-03-31T07:21:50;7.03;;;3.33;;
69910;SDS011;63555;49.920;17.868;2023-03-31T07:26:52;7.00;;;3.10;;
69910;SDS011;63555;49.920;17.868;2023-03-31T07:31:52;7.97;;;3.80;;
69910;SDS011;63555;49.920;17.868;2023-03-31T07:36:55;6.70;;;3.30;;
69910;SDS011;63555;49.920;17.868;2023-03-31T07:41:55;6.47;;;3.42;;
69910;SDS011;63555;49.920;17.868;2023-03-31T07:46:56;6.80;;;3.43;;
69910;SDS011;63555;49.920;17.868;2023-03-31T07:51:57;6.97;;;2.85;;
69910;SDS011;63555;49.920;17.868;2023-03-31T07:56:58;5.47;;;2.67;;
69910;SDS011;63555;49.920;17.868;2023-03-31T08:02:00;4.90;;;2.53;;
69910;SDS011;63555;49.920;17.868;2023-03-31T08:07:01;8.13;;;2.77;;
69910;SDS011;63555;49.920;17.868;2023-03-31T08:12:01;5.50;;;2.77;;
69910;SDS011;63555;49.920;17.868;2023-03-31T08:17:01;5.60;;;2.80;;
69910;SDS011;63555;49.920;17.868;2023-03-31T08:22:03;7.07;;;3.00;;
69910;SDS011;63555;49.920;17.868;2023-03-31T08:27:03;6.17;;;3.03;;
69910;SDS011;63555;49.920;17.868;2023-03-31T08:32:03;6.70;;;3.30;;
69910;SDS011;63555;49.920;17.868;2023-03-31T08:37:04;9.27;;;4.33;;
69910;SDS011;63555;49.920;17.868;2023-03-31T08:47:35;7.15;;;3.17;;
69910;SDS011;63555;49.920;17.868;2023-03-31T08:52:48;6.57;;;2.50;;
69910;SDS011;63555;49.920;17.868;2023-03-31T09:03:17;6.40;;;2.63;;
69910;SDS011;63555;49.920;17.868;2023-03-31T09:09:04;6.10;;;2.27;;
69910;SDS011;63555;49.920;17.868;2023-03-31T09:13:56;4.93;;;1.98;;
69910;SDS011;63555;49.920;17.868;2023-03-31T09:19:00;4.13;;;1.70;;
69910;SDS011;63555;49.920;17.868;2023-03-31T09:24:03;4.63;;;1.75;;
69910;SDS011;63555;49.920;17.868;2023-03-31T09:29:06;5.95;;;1.42;;
69910;SDS011;63555;49.920;17.868;2023-03-31T09:34:16;4.30;;;1.30;;
69910;SDS011;63555;49.920;17.868;2023-03-31T09:39:23;4.28;;;1.40;;
69910;SDS011;63555;49.920;17.868;2023-03-31T09:44:34;3.90;;;1.50;;
69910;SDS011;63555;49.920;17.868;2023-03-31T09:49:38;4.37;;;1.27;;
69910;SDS011;63555;49.920;17.868;2023-03-31T09:54:42;3.80;;;0.98;;
69910;SDS011;63555;49.920;17.868;2023-03-31T09:59:49;6.03;;;1.20;;
69910;SDS011;63555;49.920;17.868;2023-03-31T10:04:50;7.40;;;1.17;;
69910;SDS011;63555;49.920;17.868;2023-03-31T10:09:54;4.97;;;1.02;;
69910;SDS011;63555;49.920;17.868;2023-03-31T10:15:41;4.13;;;0.93;;
69910;SDS011;63555;49.920;17.868;2023-03-31T10:20:38;6.88;;;1.00;;
69910;SDS011;63555;49.920;17.868;2023-03-31T10:25:42;7.80;;;1.50;;
69910;SDS011;63555;49.920;17.868;2023-03-31T10:30:52;5.90;;;0.80;;
69910;SDS011;63555;49.920;17.868;2023-03-31T10:36:07;4.28;;;0.80;;
69910;SDS011;63555;49.920;17.868;2023-03-31T10:41:19;6.73;;;1.27;;
69910;SDS011;63555;49.920;17.868;2023-03-31T10:46:42;4.55;;;1.13;;
69910;SDS011;63555;49.920;17.868;2023-03-31T10:51:57;5.95;;;1.20;;
69910;SDS011;63555;49.920;17.868;2023-03-31T10:57:00;3.73;;;0.90;;
69910;SDS011;63555;49.920;17.868;2023-03-31T11:13:05;4.53;;;1.33;;
69910;SDS011;63555;49.920;17.868;2023-03-31T11:45:17;8.82;;;2.83;;
69910;SDS011;63555;49.920;17.868;2023-03-31T11:50:21;6.93;;;2.53;;
69910;SDS011;63555;49.920;17.868;2023-03-31T11:55:27;6.43;;;2.55;;
69910;SDS011;63555;49.920;17.868;2023-03-31T12:00:38;8.20;;;3.10;;
69910;SDS011;63555;49.920;17.868;2023-03-31T12:05:46;7.60;;;2.95;;
69910;SDS011;63555;49.920;17.868;2023-03-31T12:10:52;8.55;;;3.28;;
69910;SDS011;63555;49.920;17.868;2023-03-31T12:16:00;8.40;;;2.97;;
69910;SDS011;63555;49.920;17.868;2023-03-31T12:21:05;8.20;;;3.17;;
69910;SDS011;63555;49.920;17.868;2023-03-31T12:31:35;6.30;;;2.85;;
69910;SDS011;63555;49.920;17.868;2023-03-31T12:36:42;6.03;;;2.88;;
69910;SDS011;63555;49.920;17.868;2023-03-31T13:02:26;7.47;;;3.33;;
69910;SDS011;63555;49.920;17.868;2023-03-31T13:12:27;10.53;;;3.37;;
69910;SDS011;63555;49.920;17.868;2023-03-31T13:17:31;10.63;;;4.18;;
69910;SDS011;63555;49.920;17.868;2023-03-31T13:22:36;7.28;;;3.97;;
69910;SDS011;63555;49.920;17.868;2023-03-31T13:27:46;7.47;;;4.05;;
69910;SDS011;63555;49.920;17.868;2023-03-31T13:33:01;11.70;;;4.50;;
69910;SDS011;63555;49.920;17.868;2023-03-31T13:49:06;15.77;;;6.22;;
69910;SDS011;63555;49.920;17.868;2023-03-31T14:05:30;12.85;;;6.45;;
69910;SDS011;63555;49.920;17.868;2023-03-31T14:10:36;10.93;;;5.20;;
69910;SDS011;63555;49.920;17.868;2023-03-31T14:15:51;14.05;;;5.35;;
69910;SDS011;63555;49.920;17.868;2023-03-31T14:32:21;10.40;;;4.72;;
69910;SDS011;63555;49.920;17.868;2023-03-31T14:37:12;9.65;;;4.20;;
69910;SDS011;63555;49.920;17.868;2023-03-31T14:42:17;11.65;;;3.90;;
69910;SDS011;63555;49.920;17.868;2023-03-31T14:47:22;12.75;;;4.32;;
69910;SDS011;63555;49.920;17.868;2023-03-31T14:52:24;14.40;;;4.00;;
69910;SDS011;63555;49.920;17.868;2023-03-31T14:57:37;9.00;;;3.90;;
69910;SDS011;63555;49.920;17.868;2023-03-31T15:02:41;7.30;;;3.60;;
69910;SDS011;63555;49.920;17.868;2023-03-31T15:07:43;8.32;;;3.65;;
69910;SDS011;63555;49.920;17.868;2023-03-31T15:12:43;10.67;;;3.63;;
69910;SDS011;63555;49.920;17.868;2023-03-31T15:17:44;11.10;;;2.93;;
69910;SDS011;63555;49.920;17.868;2023-03-31T15:22:46;10.23;;;3.28;;
69910;SDS011;63555;49.920;17.868;2023-03-31T15:27:47;7.10;;;3.33;;
69910;SDS011;63555;49.920;17.868;2023-03-31T15:32:52;7.80;;;3.70;;
69910;SDS011;63555;49.920;17.868;2023-03-31T15:37:54;9.68;;;4.13;;
69910;SDS011;63555;49.920;17.868;2023-03-31T15:50:35;8.73;;;4.28;;
69910;SDS011;63555;49.920;17.868;2023-03-31T15:55:38;10.07;;;3.75;;
69910;SDS011;63555;49.920;17.868;2023-03-31T16:05:57;13.07;;;4.82;;
69910;SDS011;63555;49.920;17.868;2023-03-31T16:11:02;10.03;;;4.87;;
69910;SDS011;63555;49.920;17.868;2023-03-31T16:16:09;11.40;;;4.72;;
69910;SDS011;63555;49.920;17.868;2023-03-31T16:21:12;11.75;;;4.47;;
69910;SDS011;63555;49.920;17.868;2023-03-31T16:26:19;11.45;;;5.47;;
69910;SDS011;63555;49.920;17.868;2023-03-31T16:31:32;15.05;;;6.80;;
69910;SDS011;63555;49.920;17.868;2023-03-31T16:36:38;13.67;;;6.53;;
69910;SDS011;63555;49.920;17.868;2023-03-31T16:41:39;15.05;;;5.93;;
69910;SDS011;63555;49.920;17.868;2023-03-31T16:46:39;14.87;;;6.43;;
69910;SDS011;63555;49.920;17.868;2023-03-31T16:51:39;13.30;;;6.30;;
69910;SDS011;63555;49.920;17.868;2023-03-31T16:56:40;14.17;;;6.70;;
69910;SDS011;63555;49.920;17.868;2023-03-31T17:01:40;18.57;;;8.20;;
69910;SDS011;63555;49.920;17.868;2023-03-31T17:06:41;15.20;;;6.77;;
69910;SDS011;63555;49.920;17.868;2023-03-31T17:11:41;15.27;;;7.07;;
69910;SDS011;63555;49.920;17.868;2023-03-31T17:16:41;18.33;;;9.33;;
69910;SDS011;63555;49.920;17.868;2023-03-31T17:21:42;19.80;;;8.07;;
69910;SDS011;63555;49.920;17.868;2023-03-31T17:26:42;17.30;;;8.17;;
69910;SDS011;63555;49.920;17.868;2023-03-31T17:31:43;16.93;;;8.37;;
69910;SDS011;63555;49.920;17.868;2023-03-31T17:36:43;29.60;;;15.87;;
69910;SDS011;63555;49.920;17.868;2023-03-31T17:41:44;32.67;;;17.27;;
69910;SDS011;63555;49.920;17.868;2023-03-31T17:46:44;32.30;;;17.17;;
69910;SDS011;63555;49.920;17.868;2023-03-31T17:51:45;26.63;;;15.93;;
69910;SDS011;63555;49.920;17.868;2023-03-31T17:56:45;27.38;;;15.73;;
69910;SDS011;63555;49.920;17.868;2023-03-31T18:01:49;24.42;;;13.45;;
69910;SDS011;63555;49.920;17.868;2023-03-31T18:06:49;22.70;;;12.93;;
69910;SDS011;63555;49.920;17.868;2023-03-31T18:11:50;15.03;;;8.87;;
69910;SDS011;63555;49.920;17.868;2023-03-31T18:16:50;12.00;;;5.30;;
69910;SDS011;63555;49.920;17.868;2023-03-31T18:21:51;7.73;;;3.40;;
69910;SDS011;63555;49.920;17.868;2023-03-31T18:26:52;7.90;;;3.20;;
69910;SDS011;63555;49.920;17.868;2023-03-31T18:31:52;5.80;;;2.47;;
69910;SDS011;63555;49.920;17.868;2023-03-31T18:36:52;7.70;;;2.80;;
69910;SDS011;63555;49.920;17.868;2023-03-31T18:41:53;4.10;;;1.97;;
69910;SDS011;63555;49.920;17.868;2023-03-31T18:46:53;2.70;;;1.07;;
69910;SDS011;63555;49.920;17.868;2023-03-31T18:51:54;4.10;;;1.20;;
69910;SDS011;63555;49.920;17.868;2023-03-31T18:56:55;2.67;;;0.80;;
69910;SDS011;63555;49.920;17.868;2023-03-31T19:01:55;4.43;;;1.17;;
69910;SDS011;63555;49.920;17.868;2023-03-31T19:06:56;3.63;;;0.60;;
69910;SDS011;63555;49.920;17.868;2023-03-31T19:11:56;2.27;;;0.83;;
69910;SDS011;63555;49.920;17.868;2023-03-31T19:16:57;2.93;;;1.17;;
69910;SDS011;63555;49.920;17.868;2023-03-31T19:21:57;4.47;;;0.90;;
69910;SDS011;63555;49.920;17.868;2023-03-31T19:26:58;2.00;;;0.77;;
69910;SDS011;63555;49.920;17.868;2023-03-31T19:31:58;2.50;;;0.70;;
69910;SDS011;63555;49.920;17.868;2023-03-31T19:36:58;2.73;;;0.60;;
69910;SDS011;63555;49.920;17.868;2023-03-31T19:42:00;2.03;;;0.50;;
69910;SDS011;63555;49.920;17.868;2023-03-31T19:47:01;3.37;;;0.60;;
69910;SDS011;63555;49.920;17.868;2023-03-31T19:52:02;2.78;;;0.43;;
69910;SDS011;63555;49.920;17.868;2023-03-31T19:57:03;1.83;;;0.40;;
69910;SDS011;63555;49.920;17.868;2023-03-31T20:02:04;2.57;;;0.40;;
69910;SDS011;63555;49.920;17.868;2023-03-31T20:07:05;1.67;;;0.40;;
69910;SDS011;63555;49.920;17.868;2023-03-31T20:12:06;2.40;;;0.40;;
69910;SDS011;63555;49.920;17.868;2023-03-31T20:17:06;1.40;;;0.40;;
69910;SDS011;63555;49.920;17.868;2023-03-31T20:22:07;2.13;;;0.57;;
69910;SDS011;63555;49.920;17.868;2023-03-31T20:27:07;2.30;;;0.67;;
69910;SDS011;63555;49.920;17.868;2023-03-31T20:32:08;2.95;;;0.50;;
69910;SDS011;63555;49.920;17.868;2023-03-31T20:37:09;2.27;;;0.60;;
69910;SDS011;63555;49.920;17.868;2023-03-31T20:42:09;2.87;;;0.63;;
69910;SDS011;63555;49.920;17.868;2023-03-31T20:47:10;2.37;;;0.70;;
69910;SDS011;63555;49.920;17.868;2023-03-31T20:52:10;3.50;;;0.97;;
69910;SDS011;63555;49.920;17.868;2023-03-31T20:57:10;3.70;;;0.90;;
69910;SDS011;63555;49.920;17.868;2023-03-31T21:02:11;1.97;;;0.60;;
69910;SDS011;63555;49.920;17.868;2023-03-31T21:07:12;2.60;;;0.70;;
69910;SDS011;63555;49.920;17.868;2023-03-31T21:12:12;2.60;;;0.80;;
69910;SDS011;63555;49.920;17.868;2023-03-31T21:17:13;2.77;;;0.70;;
69910;SDS011;63555;49.920;17.868;2023-03-31T21:22:13;2.87;;;0.70;;
69910;SDS011;63555;49.920;17.868;2023-03-31T21:27:14;4.27;;;1.00;;
69910;SDS011;63555;49.920;17.868;2023-03-31T21:32:14;3.57;;;1.00;;
69910;SDS011;63555;49.920;17.868;2023-03-31T21:37:14;3.13;;;1.00;;
69910;SDS011;63555;49.920;17.868;2023-03-31T21:42:15;2.97;;;1.00;;
69910;SDS011;63555;49.920;17.868;2023-03-31T21:47:15;3.47;;;0.90;;
69910;SDS011;63555;49.920;17.868;2023-03-31T21:52:16;3.43;;;0.80;;
69910;SDS011;63555;49.920;17.868;2023-03-31T21:57:17;7.88;;;0.90;;
69910;SDS011;63555;49.920;17.868;2023-03-31T22:02:17;2.40;;;0.80;;
69910;SDS011;63555;49.920;17.868;2023-03-31T22:07:18;3.90;;;1.20;;
69910;SDS011;63555;49.920;17.868;2023-03-31T22:12:18;2.37;;;0.70;;
69910;SDS011;63555;49.920;17.868;2023-03-31T22:17:18;3.13;;;1.03;;
69910;SDS011;63555;49.920;17.868;2023-03-31T22:22:20;2.43;;;0.80;;
69910;SDS011;63555;49.920;17.868;2023-03-31T22:27:20;4.35;;;1.30;;
69910;SDS011;63555;49.920;17.868;2023-03-31T22:32:21;3.57;;;1.00;;
69910;SDS011;63555;49.920;17.868;2023-03-31T22:37:21;4.97;;;0.73;;
69910;SDS011;63555;49.920;17.868;2023-03-31T22:42:22;3.03;;;1.00;;
69910;SDS011;63555;49.920;17.868;2023-03-31T22:47:22;3.90;;;1.00;;
69910;SDS011;63555;49.920;17.868;2023-03-31T22:52:22;3.40;;;1.07;;
69910;SDS011;63555;49.920;17.868;2023-03-31T22:57:23;3.33;;;1.10;;
69910;SDS011;63555;49.920;17.868;2023-03-31T23:02:24;4.53;;;1.20;;
69910;SDS011;63555;49.920;17.868;2023-03-31T23:07:24;3.83;;;1.10;;
69910;SDS011;63555;49.920;17.868;2023-03-31T23:12:25;2.93;;;1.07;;
69910;SDS011;63555;49.920;17.868;2023-03-31T23:17:26;3.55;;;0.90;;
69910;SDS011;63555;49.920;17.868;2023-03-31T23:22:26;6.67;;;1.50;;
69910;SDS011;63555;49.920;17.868;2023-03-31T23:27:26;5.40;;;1.00;;
69910;SDS011;63555;49.920;17.868;2023-03-31T23:32:27;2.57;;;0.80;;
69910;SDS011;63555;49.920;17.868;2023-03-31T23:37:27;4.03;;;1.17;;
69910;SDS011;63555;49.920;17.868;2023-03-31T23:42:28;4.03;;;1.03;;
69910;SDS011;63555;49.920;17.868;2023-03-31T23:47:28;4.40;;;1.10;;
69910;SDS011;63555;49.920;17.868;2023-03-31T23:52:29;2.60;;;1.00;;
69910;SDS011;63555;49.920;17.868;2023-03-31T23:57:29;5.90;;;1.10;;
